Flood From: 19-02-2018 16:00 Until: 20-02-2018 16:00 warning for: Flood Level: Yellow info button

Although rather usual in this region, locally or potentially dangerous phenomena are expected. (such as local winds, summer thunderstorms, rising streams or high waves) Be aware and pay attention to the latest weather updates, especially if you carry out activities exposed to weather or close to a stream or shoreline. 


Meteo18 Weather Cam more information Meteo18 Weather Cam


Thunder radar more information blitzortung!


Rain radar more information rain snow radar


Visit our other weather sites:

Template documentation
and downloads

And another site



Weather Underground History page Text

Daily Summary for December 28, 2017 Units:  Both    English   Metric
« Previous Day
Next Day »
Daily Weekly Monthly Yearly Custom
  High: Low: Average:
Temperature: TemperatureC °F /  -17.8 °C -0.9 °F /  -18.3 °C 1 °F /  -17.2 °C
Dew Point: DewpointC °F /  -17.8 °C -1.5 °F /  -18.6 °C -0.3 °F /  -17.9 °C
Humidity: Humidity % 84 % 90 %
Wind Speed: WindSpeedKMH mph /  0 km/h - 3.9 mph /  6.3 km/h
Wind Gust: WindSpeedGustKMH mph /  0 km/h - -
Wind:- - WSW
Pressure: PressurehPa in /  0 hPa 1001.6 in /  33914.2 hPa -
Precipitation: 0.5 in /  12.7 mm    
Historical Graphs
 
 
Tabular Data for December 28, 2017
Time Temperature Dew Point Pressure Wind Wind Speed Wind Gust Humidity Rainfall Rate (Hourly)
TemperatureC °F /  -17.8 °C DewpointC °F /  -17.8 °C PressurehPa in /  0 hPa Calm     Humidity % HourlyPrecipMM in /  0 mm
00:04 2.2 °F /  -16.6 °C -0.1 °F /  -17.8 °C 1001.6 in /  33914.2 hPa WNW 13.0 mph /  20.9 km/h 27.4 mph /  44.1 km/h 85 % 0.0 in /  0 mm
00:11 2.2 °F /  -16.6 °C -0.2 °F /  -17.9 °C 1001.6 in /  33914.2 hPa West 7.9 mph /  12.7 km/h 22.5 mph /  36.2 km/h 84 % 0.0 in /  0 mm
00:17 2.2 °F /  -16.6 °C -0.2 °F /  -17.9 °C 1001.6 in /  33914.2 hPa NW 19.5 mph /  31.4 km/h 27.4 mph /  44.1 km/h 84 % 0.0 in /  0 mm
00:22 2.1 °F /  -16.6 °C -0.3 °F /  -17.9 °C 1001.6 in /  33914.2 hPa WNW 13.0 mph /  20.9 km/h 17.7 mph /  28.5 km/h 84 % 0.0 in /  0 mm
00:29 2.0 °F /  -16.7 °C -0.3 °F /  -17.9 °C 1001.6 in /  33914.2 hPa West 20.9 mph /  33.6 km/h 29.0 mph /  46.7 km/h 85 % 0.0 in /  0 mm
00:35 1.9 °F /  -16.7 °C -0.4 °F /  -18 °C 1001.9 in /  33924.3 hPa WNW 11.1 mph /  17.9 km/h 24.1 mph /  38.8 km/h 85 % 0.0 in /  0 mm
00:43 1.8 °F /  -16.8 °C -0.5 °F /  -18.1 °C 1001.9 in /  33924.3 hPa NW 11.1 mph /  17.9 km/h 17.7 mph /  28.5 km/h 85 % 0.0 in /  0 mm
00:49 1.8 °F /  -16.8 °C -0.5 °F /  -18.1 °C 1001.9 in /  33924.3 hPa WNW 11.1 mph /  17.9 km/h 19.3 mph /  31.1 km/h 85 % 0.0 in /  0 mm
00:55 1.7 °F /  -16.8 °C -0.6 °F /  -18.1 °C 1001.9 in /  33924.3 hPa West 7.9 mph /  12.7 km/h 19.3 mph /  31.1 km/h 85 % 0.0 in /  0 mm
00:57 1.7 °F /  -16.8 °C -0.6 °F /  -18.1 °C 1001.9 in /  33924.3 hPa WNW 20.9 mph /  33.6 km/h 24.1 mph /  38.8 km/h 85 % 0.0 in /  0 mm
01:03 1.7 °F /  -16.8 °C -0.6 °F /  -18.1 °C 1001.6 in /  33914.2 hPa WNW 13.0 mph /  20.9 km/h 22.5 mph /  36.2 km/h 85 % 0.0 in /  0 mm
01:05 1.7 °F /  -16.8 °C -0.6 °F /  -18.1 °C 1001.9 in /  33924.3 hPa WNW 11.1 mph /  17.9 km/h 16.1 mph /  25.9 km/h 85 % 0.0 in /  0 mm
01:11 1.6 °F /  -16.9 °C -0.6 °F /  -18.1 °C 1001.9 in /  33924.3 hPa West 7.9 mph /  12.7 km/h 22.5 mph /  36.2 km/h 85 % 0.0 in /  0 mm
01:17 1.6 °F /  -16.9 °C -0.6 °F /  -18.1 °C 1001.9 in /  33924.3 hPa WNW 17.7 mph /  28.5 km/h 20.9 mph /  33.6 km/h 85 % 0.0 in /  0 mm
01:23 1.6 °F /  -16.9 °C -0.6 °F /  -18.1 °C 1001.9 in /  33924.3 hPa WNW 16.3 mph /  26.2 km/h 30.6 mph /  49.2 km/h 85 % 0.0 in /  0 mm
01:29 1.6 °F /  -16.9 °C -0.6 °F /  -18.1 °C 1001.9 in /  33924.3 hPa West 14.3 mph /  23 km/h 30.6 mph /  49.2 km/h 85 % 0.0 in /  0 mm
01:35 1.5 °F /  -16.9 °C -0.7 °F /  -18.2 °C 1002.3 in /  33937.9 hPa WNW 13.0 mph /  20.9 km/h 16.1 mph /  25.9 km/h 85 % 0.0 in /  0 mm
01:41 1.6 °F /  -16.9 °C -0.6 °F /  -18.1 °C 1002.3 in /  33937.9 hPa WNW 14.3 mph /  23 km/h 20.9 mph /  33.6 km/h 85 % 0.0 in /  0 mm
01:47 1.4 °F /  -17 °C -0.8 °F /  -18.2 °C 1002.3 in /  33937.9 hPa West 16.3 mph /  26.2 km/h 24.1 mph /  38.8 km/h 85 % 0.0 in /  0 mm
01:53 1.4 °F /  -17 °C -0.7 °F /  -18.2 °C 1002.3 in /  33937.9 hPa WNW 13.0 mph /  20.9 km/h 30.6 mph /  49.2 km/h 86 % 0.0 in /  0 mm
01:59 1.4 °F /  -17 °C -0.7 °F /  -18.2 °C 1002.3 in /  33937.9 hPa WNW 17.7 mph /  28.5 km/h 17.7 mph /  28.5 km/h 86 % 0.0 in /  0 mm
02:05 1.4 °F /  -17 °C -0.7 °F /  -18.2 °C 1002.3 in /  33937.9 hPa West 6.4 mph /  10.3 km/h 27.4 mph /  44.1 km/h 86 % 0.0 in /  0 mm
02:11 1.4 °F /  -17 °C -0.8 °F /  -18.2 °C 1002.3 in /  33937.9 hPa West 1.4 mph /  2.3 km/h 22.5 mph /  36.2 km/h 85 % 0.0 in /  0 mm
02:17 1.3 °F /  -17.1 °C -0.8 °F /  -18.2 °C 1002.6 in /  33948 hPa West 16.3 mph /  26.2 km/h 17.7 mph /  28.5 km/h 86 % 0.0 in /  0 mm
02:23 1.3 °F /  -17.1 °C -0.8 °F /  -18.2 °C 1002.6 in /  33948 hPa WNW 14.3 mph /  23 km/h 14.5 mph /  23.3 km/h 86 % 0.0 in /  0 mm
02:29 1.3 °F /  -17.1 °C -0.8 °F /  -18.2 °C 1002.6 in /  33948 hPa West 9.7 mph /  15.6 km/h 14.5 mph /  23.3 km/h 86 % 0.0 in /  0 mm
02:35 1.3 °F /  -17.1 °C -0.8 °F /  -18.2 °C 1002.6 in /  33948 hPa WNW 13.0 mph /  20.9 km/h 16.1 mph /  25.9 km/h 86 % 0.0 in /  0 mm
02:41 1.3 °F /  -17.1 °C -0.8 °F /  -18.2 °C 1002.9 in /  33958.2 hPa West 17.7 mph /  28.5 km/h 17.7 mph /  28.5 km/h 86 % 0.0 in /  0 mm
02:47 1.3 °F /  -17.1 °C -0.8 °F /  -18.2 °C 1002.9 in /  33958.2 hPa WNW 20.9 mph /  33.6 km/h 25.7 mph /  41.4 km/h 86 % 0.0 in /  0 mm
02:53 1.3 °F /  -17.1 °C -0.8 °F /  -18.2 °C 1002.9 in /  33958.2 hPa West 11.1 mph /  17.9 km/h 19.3 mph /  31.1 km/h 86 % 0.0 in /  0 mm
02:59 1.2 °F /  -17.1 °C -0.9 °F /  -18.3 °C 1002.9 in /  33958.2 hPa West 7.9 mph /  12.7 km/h 22.5 mph /  36.2 km/h 86 % 0.0 in /  0 mm
03:05 1.2 °F /  -17.1 °C -0.9 °F /  -18.3 °C 1002.9 in /  33958.2 hPa WSW 7.9 mph /  12.7 km/h 20.9 mph /  33.6 km/h 86 % 0.0 in /  0 mm
03:11 1.2 °F /  -17.1 °C -0.7 °F /  -18.2 °C 1002.9 in /  33958.2 hPa WNW 20.9 mph /  33.6 km/h 20.9 mph /  33.6 km/h 87 % 0.0 in /  0 mm
03:17 1.1 °F /  -17.2 °C -0.8 °F /  -18.2 °C 1002.9 in /  33958.2 hPa WNW 11.1 mph /  17.9 km/h 14.5 mph /  23.3 km/h 87 % 0.0 in /  0 mm
03:23 1.1 °F /  -17.2 °C -0.8 °F /  -18.2 °C 1003.3 in /  33971.7 hPa West 7.9 mph /  12.7 km/h 14.5 mph /  23.3 km/h 87 % 0.0 in /  0 mm
03:29 1.0 °F /  -17.2 °C -0.9 °F /  -18.3 °C 1002.9 in /  33958.2 hPa NNW 4.7 mph /  7.6 km/h 17.7 mph /  28.5 km/h 87 % 0.0 in /  0 mm
03:35 0.9 °F /  -17.3 °C -1.0 °F /  -18.3 °C 1003.3 in /  33971.7 hPa WSW 7.9 mph /  12.7 km/h 16.1 mph /  25.9 km/h 87 % 0.0 in /  0 mm
03:41 0.9 °F /  -17.3 °C -1.0 °F /  -18.3 °C 1003.3 in /  33971.7 hPa NW 16.3 mph /  26.2 km/h 17.7 mph /  28.5 km/h 87 % 0.0 in /  0 mm
03:47 0.9 °F /  -17.3 °C -0.9 °F /  -18.3 °C 1003.3 in /  33971.7 hPa NW 13.0 mph /  20.9 km/h 17.7 mph /  28.5 km/h 88 % 0.0 in /  0 mm
03:53 0.9 °F /  -17.3 °C -0.9 °F /  -18.3 °C 1003.3 in /  33971.7 hPa WNW 4.7 mph /  7.6 km/h 12.9 mph /  20.8 km/h 88 % 0.0 in /  0 mm
03:59 0.9 °F /  -17.3 °C -0.9 °F /  -18.3 °C 1003.6 in /  33981.9 hPa West 11.1 mph /  17.9 km/h 16.1 mph /  25.9 km/h 88 % 0.0 in /  0 mm
04:05 0.8 °F /  -17.3 °C -1.0 °F /  -18.3 °C 1003.6 in /  33981.9 hPa West 11.1 mph /  17.9 km/h 12.9 mph /  20.8 km/h 88 % 0.0 in /  0 mm
04:07 0.9 °F /  -17.3 °C -0.9 °F /  -18.3 °C 1003.6 in /  33981.9 hPa WNW 6.4 mph /  10.3 km/h 12.9 mph /  20.8 km/h 88 % 0.0 in /  0 mm
04:19 0.8 °F /  -17.3 °C -1.0 °F /  -18.3 °C 1003.6 in /  33981.9 hPa Calm   1.6 mph /  2.6 km/h 88 % 0.0 in /  0 mm
04:25 0.7 °F /  -17.4 °C -1.1 °F /  -18.4 °C 1003.6 in /  33981.9 hPa West 1.4 mph /  2.3 km/h 3.2 mph /  5.1 km/h 88 % 0.0 in /  0 mm
04:31 0.7 °F /  -17.4 °C -1.1 °F /  -18.4 °C 1003.6 in /  33981.9 hPa West 4.7 mph /  7.6 km/h 14.5 mph /  23.3 km/h 88 % 0.0 in /  0 mm
04:37 0.7 °F /  -17.4 °C -1.1 °F /  -18.4 °C 1003.6 in /  33981.9 hPa WSW 4.7 mph /  7.6 km/h 11.3 mph /  18.2 km/h 88 % 0.0 in /  0 mm
04:43 0.7 °F /  -17.4 °C -0.9 °F /  -18.3 °C 1003.9 in /  33992.1 hPa West 4.7 mph /  7.6 km/h 11.3 mph /  18.2 km/h 89 % 0.0 in /  0 mm
04:49 0.7 °F /  -17.4 °C -1.1 °F /  -18.4 °C 1003.9 in /  33992.1 hPa Calm   4.8 mph /  7.7 km/h 88 % 0.0 in /  0 mm
04:55 0.7 °F /  -17.4 °C -1.1 °F /  -18.4 °C 1003.9 in /  33992.1 hPa West 7.9 mph /  12.7 km/h 8.0 mph /  12.9 km/h 88 % 0.0 in /  0 mm
05:01 0.6 °F /  -17.4 °C -1.0 °F /  -18.3 °C 1003.9 in /  33992.1 hPa Calm   3.2 mph /  5.1 km/h 89 % 0.0 in /  0 mm
05:07 0.6 °F /  -17.4 °C -1.0 °F /  -18.3 °C 1003.9 in /  33992.1 hPa Calm   1.6 mph /  2.6 km/h 89 % 0.0 in /  0 mm
05:13 0.4 °F /  -17.6 °C -1.2 °F /  -18.4 °C 1003.9 in /  33992.1 hPa West 1.4 mph /  2.3 km/h 3.2 mph /  5.1 km/h 89 % 0.0 in /  0 mm
05:17 0.4 °F /  -17.6 °C -1.2 °F /  -18.4 °C 1003.9 in /  33992.1 hPa Calm     89 % 0.0 in /  0 mm
05:23 0.3 °F /  -17.6 °C -1.3 °F /  -18.5 °C 1004.3 in /  34005.6 hPa Calm   1.6 mph /  2.6 km/h 89 % 0.0 in /  0 mm
05:29 0.2 °F /  -17.7 °C -1.2 °F /  -18.4 °C 1004.3 in /  34005.6 hPa SSW 1.4 mph /  2.3 km/h 3.2 mph /  5.1 km/h 90 % 0.0 in /  0 mm
05:35 0.0 °F /  -17.8 °C -1.4 °F /  -18.6 °C 1004.3 in /  34005.6 hPa SW 1.4 mph /  2.3 km/h 3.2 mph /  5.1 km/h 90 % 0.0 in /  0 mm
05:41 -0.2 °F /  -17.9 °C -1.5 °F /  -18.6 °C 1004.3 in /  34005.6 hPa SW 3.2 mph /  5.1 km/h 4.8 mph /  7.7 km/h 91 % 0.0 in /  0 mm
05:47 -0.2 °F /  -17.9 °C -1.5 °F /  -18.6 °C 1004.6 in /  34015.8 hPa SW 1.4 mph /  2.3 km/h 3.2 mph /  5.1 km/h 91 % 0.0 in /  0 mm
05:51 -0.2 °F /  -17.9 °C -1.5 °F /  -18.6 °C 1004.6 in /  34015.8 hPa Calm   1.6 mph /  2.6 km/h 91 % 0.0 in /  0 mm
05:57 -0.3 °F /  -17.9 °C -1.4 °F /  -18.6 °C 1004.6 in /  34015.8 hPa Calm   4.8 mph /  7.7 km/h 92 % 0.0 in /  0 mm
06:05 -0.3 °F /  -17.9 °C -1.4 °F /  -18.6 °C 1004.6 in /  34015.8 hPa West 3.2 mph /  5.1 km/h 3.2 mph /  5.1 km/h 92 % 0.0 in /  0 mm
06:09 -0.4 °F /  -18 °C -1.5 °F /  -18.6 °C 1004.6 in /  34015.8 hPa West 1.4 mph /  2.3 km/h 1.6 mph /  2.6 km/h 92 % 0.0 in /  0 mm
06:15 -0.3 °F /  -17.9 °C -1.4 °F /  -18.6 °C 1004.6 in /  34015.8 hPa WSW 1.4 mph /  2.3 km/h 4.8 mph /  7.7 km/h 92 % 0.0 in /  0 mm
06:17 -0.3 °F /  -17.9 °C -1.4 °F /  -18.6 °C 1004.6 in /  34015.8 hPa Calm   4.8 mph /  7.7 km/h 92 % 0.0 in /  0 mm
06:23 -0.3 °F /  -17.9 °C -1.4 °F /  -18.6 °C 1004.6 in /  34015.8 hPa Calm   1.6 mph /  2.6 km/h 92 % 0.0 in /  0 mm
06:29 -0.3 °F /  -17.9 °C -1.4 °F /  -18.6 °C 1004.6 in /  34015.8 hPa West 1.4 mph /  2.3 km/h 4.8 mph /  7.7 km/h 92 % 0.0 in /  0 mm
06:35 -0.3 °F /  -17.9 °C -1.4 °F /  -18.6 °C 1004.6 in /  34015.8 hPa WSW 3.2 mph /  5.1 km/h 3.2 mph /  5.1 km/h 92 % 0.0 in /  0 mm
06:37 -0.3 °F /  -17.9 °C -1.4 °F /  -18.6 °C 1004.6 in /  34015.8 hPa NW 3.2 mph /  5.1 km/h 4.8 mph /  7.7 km/h 92 % 0.0 in /  0 mm
06:43 -0.3 °F /  -17.9 °C -1.4 °F /  -18.6 °C 1004.6 in /  34015.8 hPa WNW 1.4 mph /  2.3 km/h 4.8 mph /  7.7 km/h 92 % 0.0 in /  0 mm
06:51 -0.3 °F /  -17.9 °C -1.4 °F /  -18.6 °C 1005.0 in /  34029.3 hPa WNW 6.4 mph /  10.3 km/h 6.4 mph /  10.3 km/h 92 % 0.0 in /  0 mm
06:57 -0.3 °F /  -17.9 °C -1.4 °F /  -18.6 °C 1005.0 in /  34029.3 hPa WNW 4.7 mph /  7.6 km/h 6.4 mph /  10.3 km/h 92 % 0.0 in /  0 mm
07:03 -0.3 °F /  -17.9 °C -1.4 °F /  -18.6 °C 1005.0 in /  34029.3 hPa WNW 4.7 mph /  7.6 km/h 4.8 mph /  7.7 km/h 92 % 0.0 in /  0 mm
07:09 -0.3 °F /  -17.9 °C -1.4 °F /  -18.6 °C 1005.0 in /  34029.3 hPa West 1.4 mph /  2.3 km/h 8.0 mph /  12.9 km/h 92 % 0.0 in /  0 mm
07:15 -0.4 °F /  -18 °C -1.5 °F /  -18.6 °C 1005.0 in /  34029.3 hPa West 1.4 mph /  2.3 km/h 3.2 mph /  5.1 km/h 92 % 0.0 in /  0 mm
07:19 -0.3 °F /  -17.9 °C -1.3 °F /  -18.5 °C 1005.0 in /  34029.3 hPa NW 1.4 mph /  2.3 km/h 3.2 mph /  5.1 km/h 93 % 0.0 in /  0 mm
07:25 -0.3 °F /  -17.9 °C -1.4 °F /  -18.6 °C 1005.0 in /  34029.3 hPa Calm   1.6 mph /  2.6 km/h 92 % 0.0 in /  0 mm
07:31 -0.4 °F /  -18 °C -1.4 °F /  -18.6 °C 1005.3 in /  34039.5 hPa Calm   3.2 mph /  5.1 km/h 93 % 0.0 in /  0 mm
07:37 -0.3 °F /  -17.9 °C -1.3 °F /  -18.5 °C 1005.3 in /  34039.5 hPa Calm   4.8 mph /  7.7 km/h 93 % 0.0 in /  0 mm
07:43 -0.4 °F /  -18 °C -1.5 °F /  -18.6 °C 1005.6 in /  34049.6 hPa SSW 1.4 mph /  2.3 km/h 1.6 mph /  2.6 km/h 92 % 0.0 in /  0 mm
07:49 -0.5 °F /  -18.1 °C -1.5 °F /  -18.6 °C 1005.3 in /  34039.5 hPa Calm   3.2 mph /  5.1 km/h 93 % 0.0 in /  0 mm
07:55 -0.5 °F /  -18.1 °C -1.5 °F /  -18.6 °C 1005.3 in /  34039.5 hPa Calm   1.6 mph /  2.6 km/h 93 % 0.0 in /  0 mm
08:01 -0.5 °F /  -18.1 °C -1.5 °F /  -18.6 °C 1005.6 in /  34049.6 hPa SW 1.4 mph /  2.3 km/h 1.6 mph /  2.6 km/h 93 % 0.0 in /  0 mm
08:07 -0.3 °F /  -17.9 °C -1.3 °F /  -18.5 °C 1005.6 in /  34049.6 hPa SSW 1.4 mph /  2.3 km/h 4.8 mph /  7.7 km/h 93 % 0.0 in /  0 mm
08:13 -0.2 °F /  -17.9 °C -1.2 °F /  -18.4 °C 1005.6 in /  34049.6 hPa WSW 1.4 mph /  2.3 km/h 3.2 mph /  5.1 km/h 93 % 0.0 in /  0 mm
08:19 -0.1 °F /  -17.8 °C -1.1 °F /  -18.4 °C 1005.6 in /  34049.6 hPa West 3.2 mph /  5.1 km/h 6.4 mph /  10.3 km/h 93 % 0.0 in /  0 mm
08:25 0.0 °F /  -17.8 °C -1.0 °F /  -18.3 °C 1005.6 in /  34049.6 hPa Calm   3.2 mph /  5.1 km/h 93 % 0.0 in /  0 mm
08:32 0.1 °F /  -17.7 °C -0.9 °F /  -18.3 °C 1005.6 in /  34049.6 hPa West 1.4 mph /  2.3 km/h 4.8 mph /  7.7 km/h 93 % 0.0 in /  0 mm
08:38 0.2 °F /  -17.7 °C -0.8 °F /  -18.2 °C 1006.0 in /  34063.2 hPa SW 1.4 mph /  2.3 km/h 4.8 mph /  7.7 km/h 93 % 0.0 in /  0 mm
08:44 0.2 °F /  -17.7 °C -0.8 °F /  -18.2 °C 1006.0 in /  34063.2 hPa SSW 1.4 mph /  2.3 km/h 3.2 mph /  5.1 km/h 93 % 0.0 in /  0 mm
08:50 0.2 °F /  -17.7 °C -0.8 °F /  -18.2 °C 1006.0 in /  34063.2 hPa SSE 1.4 mph /  2.3 km/h 3.2 mph /  5.1 km/h 93 % 0.0 in /  0 mm
08:56 0.0 °F /  -17.8 °C -1.0 °F /  -18.3 °C 1006.0 in /  34063.2 hPa SW 6.4 mph /  10.3 km/h 6.4 mph /  10.3 km/h 93 % 0.0 in /  0 mm
09:02 0.0 °F /  -17.8 °C -1.0 °F /  -18.3 °C 1006.0 in /  34063.2 hPa SW 3.2 mph /  5.1 km/h 9.7 mph /  15.6 km/h 93 % 0.0 in /  0 mm
09:08 -0.2 °F /  -17.9 °C -1.0 °F /  -18.3 °C 1005.6 in /  34049.6 hPa West 6.4 mph /  10.3 km/h 11.3 mph /  18.2 km/h 94 % 0.0 in /  0 mm
09:14 0.2 °F /  -17.7 °C -0.7 °F /  -18.2 °C 1006.0 in /  34063.2 hPa WSW 7.9 mph /  12.7 km/h 11.3 mph /  18.2 km/h 94 % 0.0 in /  0 mm
09:20 0.2 °F /  -17.7 °C -0.7 °F /  -18.2 °C 1006.0 in /  34063.2 hPa WSW 7.9 mph /  12.7 km/h 12.9 mph /  20.8 km/h 94 % 0.0 in /  0 mm
09:26 0.3 °F /  -17.6 °C -0.6 °F /  -18.1 °C 1006.0 in /  34063.2 hPa WSW 9.7 mph /  15.6 km/h 11.3 mph /  18.2 km/h 94 % 0.0 in /  0 mm
09:32 0.3 °F /  -17.6 °C -0.7 °F /  -18.2 °C 1006.0 in /  34063.2 hPa SW 3.2 mph /  5.1 km/h 8.0 mph /  12.9 km/h 93 % 0.0 in /  0 mm
09:38 0.3 °F /  -17.6 °C -0.7 °F /  -18.2 °C 1006.0 in /  34063.2 hPa WSW 6.4 mph /  10.3 km/h 8.0 mph /  12.9 km/h 93 % 0.0 in /  0 mm
09:44 0.3 °F /  -17.6 °C -0.7 °F /  -18.2 °C 1006.0 in /  34063.2 hPa South 1.4 mph /  2.3 km/h 4.8 mph /  7.7 km/h 93 % 0.0 in /  0 mm
09:50 0.2 °F /  -17.7 °C -0.8 °F /  -18.2 °C 1006.3 in /  34073.3 hPa Calm   1.6 mph /  2.6 km/h 93 % 0.0 in /  0 mm
09:56 0.2 °F /  -17.7 °C -0.8 °F /  -18.2 °C 1006.3 in /  34073.3 hPa Calm   1.6 mph /  2.6 km/h 93 % 0.0 in /  0 mm
10:02 0.2 °F /  -17.7 °C -0.8 °F /  -18.2 °C 1006.3 in /  34073.3 hPa Calm     93 % 0.0 in /  0 mm
10:08 0.1 °F /  -17.7 °C -0.9 °F /  -18.3 °C 1006.3 in /  34073.3 hPa SSW 3.2 mph /  5.1 km/h 4.8 mph /  7.7 km/h 93 % 0.0 in /  0 mm
10:14 -0.1 °F /  -17.8 °C -1.1 °F /  -18.4 °C 1006.3 in /  34073.3 hPa SSW 4.7 mph /  7.6 km/h 4.8 mph /  7.7 km/h 93 % 0.0 in /  0 mm
10:20 -0.2 °F /  -17.9 °C -1.0 °F /  -18.3 °C 1006.3 in /  34073.3 hPa SSW 3.2 mph /  5.1 km/h 6.4 mph /  10.3 km/h 94 % 0.0 in /  0 mm
10:26 -0.3 °F /  -17.9 °C -1.1 °F /  -18.4 °C 1006.3 in /  34073.3 hPa South 1.4 mph /  2.3 km/h 3.2 mph /  5.1 km/h 94 % 0.0 in /  0 mm
10:32 -0.3 °F /  -17.9 °C -1.1 °F /  -18.4 °C 1006.3 in /  34073.3 hPa Calm   4.8 mph /  7.7 km/h 94 % 0.0 in /  0 mm
10:38 -0.2 °F /  -17.9 °C -0.9 °F /  -18.3 °C 1006.3 in /  34073.3 hPa SSE 1.4 mph /  2.3 km/h 4.8 mph /  7.7 km/h 95 % 0.0 in /  0 mm
10:44 0.1 °F /  -17.7 °C -0.6 °F /  -18.1 °C 1006.3 in /  34073.3 hPa Calm   3.2 mph /  5.1 km/h 95 % 0.0 in /  0 mm
10:50 0.3 °F /  -17.6 °C -0.6 °F /  -18.1 °C 1006.3 in /  34073.3 hPa Calm   9.7 mph /  15.6 km/h 94 % 0.0 in /  0 mm
10:56 0.3 °F /  -17.6 °C -0.6 °F /  -18.1 °C 1006.7 in /  34086.9 hPa WSW 1.4 mph /  2.3 km/h 8.0 mph /  12.9 km/h 94 % 0.0 in /  0 mm
11:02 0.4 °F /  -17.6 °C -0.5 °F /  -18.1 °C 1006.3 in /  34073.3 hPa SW 1.4 mph /  2.3 km/h 1.6 mph /  2.6 km/h 94 % 0.0 in /  0 mm
11:08 0.4 °F /  -17.6 °C -0.6 °F /  -18.1 °C 1006.7 in /  34086.9 hPa West 7.9 mph /  12.7 km/h 9.7 mph /  15.6 km/h 93 % 0.0 in /  0 mm
11:14 0.6 °F /  -17.4 °C -0.4 °F /  -18 °C 1006.7 in /  34086.9 hPa WSW 6.4 mph /  10.3 km/h 12.9 mph /  20.8 km/h 93 % 0.0 in /  0 mm
11:17 0.6 °F /  -17.4 °C -0.4 °F /  -18 °C 1006.7 in /  34086.9 hPa SW 6.4 mph /  10.3 km/h 11.3 mph /  18.2 km/h 93 % 0.0 in /  0 mm
11:24 0.7 °F /  -17.4 °C -0.3 °F /  -17.9 °C 1006.7 in /  34086.9 hPa WNW 3.2 mph /  5.1 km/h 9.7 mph /  15.6 km/h 93 % 0.0 in /  0 mm
11:26 0.8 °F /  -17.3 °C -0.2 °F /  -17.9 °C 1006.7 in /  34086.9 hPa SSW 1.4 mph /  2.3 km/h 8.0 mph /  12.9 km/h 93 % 0.0 in /  0 mm
11:32 0.8 °F /  -17.3 °C -0.4 °F /  -18 °C 1006.7 in /  34086.9 hPa WSW 1.4 mph /  2.3 km/h 9.7 mph /  15.6 km/h 92 % 0.0 in /  0 mm
11:38 1.0 °F /  -17.2 °C -0.2 °F /  -17.9 °C 1006.7 in /  34086.9 hPa Calm   6.4 mph /  10.3 km/h 92 % 0.0 in /  0 mm
11:44 1.1 °F /  -17.2 °C -0.2 °F /  -17.9 °C 1006.7 in /  34086.9 hPa West 6.4 mph /  10.3 km/h 8.0 mph /  12.9 km/h 91 % 0.0 in /  0 mm
11:50 1.2 °F /  -17.1 °C 0.0 °F /  -17.8 °C 1006.7 in /  34086.9 hPa WSW 1.4 mph /  2.3 km/h 1.6 mph /  2.6 km/h 92 % 0.0 in /  0 mm
11:56 1.2 °F /  -17.1 °C -0.1 °F /  -17.8 °C 1007.0 in /  34097 hPa SW 1.4 mph /  2.3 km/h 4.8 mph /  7.7 km/h 91 % 0.0 in /  0 mm
12:02 1.3 °F /  -17.1 °C 0.0 °F /  -17.8 °C 1007.0 in /  34097 hPa SW 3.2 mph /  5.1 km/h 3.2 mph /  5.1 km/h 91 % 0.0 in /  0 mm
12:08 1.3 °F /  -17.1 °C 0.0 °F /  -17.8 °C 1007.0 in /  34097 hPa SW 1.4 mph /  2.3 km/h 4.8 mph /  7.7 km/h 91 % 0.0 in /  0 mm
12:14 1.3 °F /  -17.1 °C 0.0 °F /  -17.8 °C 1006.7 in /  34086.9 hPa SW 1.4 mph /  2.3 km/h 4.8 mph /  7.7 km/h 91 % 0.0 in /  0 mm
12:20 1.3 °F /  -17.1 °C 0.0 °F /  -17.8 °C 1007.0 in /  34097 hPa SW 4.7 mph /  7.6 km/h 6.4 mph /  10.3 km/h 91 % 0.0 in /  0 mm
12:26 1.3 °F /  -17.1 °C 0.0 °F /  -17.8 °C 1006.7 in /  34086.9 hPa SW 3.2 mph /  5.1 km/h 6.4 mph /  10.3 km/h 91 % 0.0 in /  0 mm
12:32 1.3 °F /  -17.1 °C 0.0 °F /  -17.8 °C 1007.0 in /  34097 hPa West 4.7 mph /  7.6 km/h 9.7 mph /  15.6 km/h 91 % 0.0 in /  0 mm
12:40 1.3 °F /  -17.1 °C 0.0 °F /  -17.8 °C 1007.0 in /  34097 hPa SSW 6.4 mph /  10.3 km/h 8.0 mph /  12.9 km/h 91 % 0.0 in /  0 mm
12:46 1.4 °F /  -17 °C 0.1 °F /  -17.7 °C 1007.0 in /  34097 hPa SSW 1.4 mph /  2.3 km/h 6.4 mph /  10.3 km/h 91 % 0.0 in /  0 mm
12:52 1.4 °F /  -17 °C 0.1 °F /  -17.7 °C 1006.7 in /  34086.9 hPa SW 3.2 mph /  5.1 km/h 6.4 mph /  10.3 km/h 91 % 0.0 in /  0 mm
12:58 1.5 °F /  -16.9 °C 0.2 °F /  -17.7 °C 1006.7 in /  34086.9 hPa West 1.4 mph /  2.3 km/h 8.0 mph /  12.9 km/h 91 % 0.0 in /  0 mm
13:04 1.6 °F /  -16.9 °C 0.3 °F /  -17.6 °C 1006.7 in /  34086.9 hPa West 6.4 mph /  10.3 km/h 11.3 mph /  18.2 km/h 91 % 0.0 in /  0 mm
13:10 1.8 °F /  -16.8 °C 0.5 °F /  -17.5 °C 1006.7 in /  34086.9 hPa WSW 4.7 mph /  7.6 km/h 8.0 mph /  12.9 km/h 91 % 0.0 in /  0 mm
13:16 1.9 °F /  -16.7 °C 0.4 °F /  -17.6 °C 1006.3 in /  34073.3 hPa Calm   8.0 mph /  12.9 km/h 90 % 0.0 in /  0 mm
13:22 2.1 °F /  -16.6 °C 0.6 °F /  -17.4 °C 1006.3 in /  34073.3 hPa SW 3.2 mph /  5.1 km/h 8.0 mph /  12.9 km/h 90 % 0.0 in /  0 mm
13:28 2.4 °F /  -16.4 °C 0.8 °F /  -17.3 °C 1006.3 in /  34073.3 hPa WSW 6.4 mph /  10.3 km/h 12.9 mph /  20.8 km/h 89 % 0.0 in /  0 mm
13:34 2.7 °F /  -16.3 °C 1.1 °F /  -17.2 °C 1006.3 in /  34073.3 hPa SSW 3.2 mph /  5.1 km/h 9.7 mph /  15.6 km/h 89 % 0.3 in /  7.62 mm
13:40 2.8 °F /  -16.2 °C 1.0 °F /  -17.2 °C 1006.3 in /  34073.3 hPa WSW 6.4 mph /  10.3 km/h 9.7 mph /  15.6 km/h 88 % 0.3 in /  7.62 mm
13:46 3.2 °F /  -16 °C 1.4 °F /  -17 °C 1006.3 in /  34073.3 hPa SW 1.4 mph /  2.3 km/h 4.8 mph /  7.7 km/h 88 % 0.3 in /  7.62 mm
13:52 3.3 °F /  -15.9 °C 1.2 °F /  -17.1 °C 1006.3 in /  34073.3 hPa SW 4.7 mph /  7.6 km/h 9.7 mph /  15.6 km/h 86 % 0.3 in /  7.62 mm
13:58 3.3 °F /  -15.9 °C 1.2 °F /  -17.1 °C 1006.7 in /  34086.9 hPa WNW 4.7 mph /  7.6 km/h 8.0 mph /  12.9 km/h 86 % 0.3 in /  7.62 mm
14:04 3.4 °F /  -15.9 °C 1.1 °F /  -17.2 °C 1006.3 in /  34073.3 hPa WSW 6.4 mph /  10.3 km/h 11.3 mph /  18.2 km/h 85 % 0.3 in /  7.62 mm
14:10 3.4 °F /  -15.9 °C 1.3 °F /  -17.1 °C 1006.7 in /  34086.9 hPa West 7.9 mph /  12.7 km/h 14.5 mph /  23.3 km/h 86 % 0.3 in /  7.62 mm
14:16 3.4 °F /  -15.9 °C 1.4 °F /  -17 °C 1006.7 in /  34086.9 hPa WSW 4.7 mph /  7.6 km/h 9.7 mph /  15.6 km/h 87 % 0.3 in /  7.62 mm
14:20 3.4 °F /  -15.9 °C 1.3 °F /  -17.1 °C 1006.7 in /  34086.9 hPa West 7.9 mph /  12.7 km/h 14.5 mph /  23.3 km/h 86 % 0.3 in /  7.62 mm
14:26 3.4 °F /  -15.9 °C 1.4 °F /  -17 °C 1006.7 in /  34086.9 hPa WSW 11.1 mph /  17.9 km/h 12.9 mph /  20.8 km/h 87 % 0.3 in /  7.62 mm
14:32 3.5 °F /  -15.8 °C 1.4 °F /  -17 °C 1007.0 in /  34097 hPa SW 9.7 mph /  15.6 km/h 14.5 mph /  23.3 km/h 86 % 0.3 in /  7.62 mm
14:38 3.6 °F /  -15.8 °C 1.5 °F /  -16.9 °C 1007.0 in /  34097 hPa SW 9.7 mph /  15.6 km/h 11.3 mph /  18.2 km/h 86 % 0.3 in /  7.62 mm
14:44 3.4 °F /  -15.9 °C 1.3 °F /  -17.1 °C 1007.0 in /  34097 hPa SW 7.9 mph /  12.7 km/h 11.3 mph /  18.2 km/h 86 % 0.3 in /  7.62 mm
14:50 3.5 °F /  -15.8 °C 1.5 °F /  -16.9 °C 1007.0 in /  34097 hPa South 3.2 mph /  5.1 km/h 11.3 mph /  18.2 km/h 87 % 0.3 in /  7.62 mm
14:56 3.7 °F /  -15.7 °C 1.7 °F /  -16.8 °C 1007.0 in /  34097 hPa SSE 1.4 mph /  2.3 km/h 6.4 mph /  10.3 km/h 87 % 0.3 in /  7.62 mm
15:02 3.9 °F /  -15.6 °C 1.8 °F /  -16.8 °C 1007.0 in /  34097 hPa WSW 6.4 mph /  10.3 km/h 6.4 mph /  10.3 km/h 86 % 0.3 in /  7.62 mm
15:08 4.0 °F /  -15.6 °C 1.7 °F /  -16.8 °C 1007.3 in /  34107.2 hPa SW 3.2 mph /  5.1 km/h 8.0 mph /  12.9 km/h 85 % 0.3 in /  7.62 mm
15:14 4.1 °F /  -15.5 °C 1.6 °F /  -16.9 °C 1007.3 in /  34107.2 hPa WSW 6.4 mph /  10.3 km/h 11.3 mph /  18.2 km/h 84 % 0.3 in /  7.62 mm
15:20 4.0 °F /  -15.6 °C 1.7 °F /  -16.8 °C 1007.3 in /  34107.2 hPa West 4.7 mph /  7.6 km/h 9.7 mph /  15.6 km/h 85 % 0.3 in /  7.62 mm
15:26 3.8 °F /  -15.7 °C 1.5 °F /  -16.9 °C 1007.3 in /  34107.2 hPa WSW 3.2 mph /  5.1 km/h 11.3 mph /  18.2 km/h 85 % 0.3 in /  7.62 mm
15:32 3.7 °F /  -15.7 °C 1.4 °F /  -17 °C 1007.3 in /  34107.2 hPa Calm   6.4 mph /  10.3 km/h 85 % 0.0 in /  0 mm
15:40 3.7 °F /  -15.7 °C 1.6 °F /  -16.9 °C 1007.3 in /  34107.2 hPa Calm   6.4 mph /  10.3 km/h 86 % 0.0 in /  0 mm
15:46 3.7 °F /  -15.7 °C 1.6 °F /  -16.9 °C 1007.7 in /  34120.7 hPa Calm   3.2 mph /  5.1 km/h 86 % 0.0 in /  0 mm
15:53 3.8 °F /  -15.7 °C 1.7 °F /  -16.8 °C 1007.7 in /  34120.7 hPa SSW 1.4 mph /  2.3 km/h 1.6 mph /  2.6 km/h 86 % 0.0 in /  0 mm
15:59 3.6 °F /  -15.8 °C 1.5 °F /  -16.9 °C 1007.7 in /  34120.7 hPa SW 4.7 mph /  7.6 km/h 6.4 mph /  10.3 km/h 86 % 0.0 in /  0 mm
16:05 3.4 °F /  -15.9 °C 1.4 °F /  -17 °C 1007.7 in /  34120.7 hPa SW 1.4 mph /  2.3 km/h 9.7 mph /  15.6 km/h 87 % 0.0 in /  0 mm
16:11 3.3 °F /  -15.9 °C 1.3 °F /  -17.1 °C 1007.7 in /  34120.7 hPa SSW 4.7 mph /  7.6 km/h 9.7 mph /  15.6 km/h 87 % 0.0 in /  0 mm
16:15 3.3 °F /  -15.9 °C 1.3 °F /  -17.1 °C 1007.7 in /  34120.7 hPa SSW 3.2 mph /  5.1 km/h 8.0 mph /  12.9 km/h 87 % 0.0 in /  0 mm
16:21 3.4 °F /  -15.9 °C 1.4 °F /  -17 °C 1008.0 in /  34130.9 hPa SW 4.7 mph /  7.6 km/h 4.8 mph /  7.7 km/h 87 % 0.0 in /  0 mm
16:27 3.4 °F /  -15.9 °C 1.4 °F /  -17 °C 1008.0 in /  34130.9 hPa SSW 1.4 mph /  2.3 km/h 3.2 mph /  5.1 km/h 87 % 0.0 in /  0 mm
16:33 3.5 °F /  -15.8 °C 1.5 °F /  -16.9 °C 1008.0 in /  34130.9 hPa Calm   1.6 mph /  2.6 km/h 87 % 0.0 in /  0 mm
16:39 3.5 °F /  -15.8 °C 1.5 °F /  -16.9 °C 1008.0 in /  34130.9 hPa SSW 1.4 mph /  2.3 km/h 1.6 mph /  2.6 km/h 87 % 0.0 in /  0 mm
16:45 3.3 °F /  -15.9 °C 1.3 °F /  -17.1 °C 1008.0 in /  34130.9 hPa SSW 1.4 mph /  2.3 km/h 3.2 mph /  5.1 km/h 87 % 0.0 in /  0 mm
16:47 3.1 °F /  -16.1 °C 1.1 °F /  -17.2 °C 1008.0 in /  34130.9 hPa SW 1.4 mph /  2.3 km/h 3.2 mph /  5.1 km/h 87 % 0.0 in /  0 mm
16:53 2.8 °F /  -16.2 °C 1.0 °F /  -17.2 °C 1008.4 in /  34144.4 hPa SSW 1.4 mph /  2.3 km/h 4.8 mph /  7.7 km/h 88 % 0.0 in /  0 mm
16:59 2.7 °F /  -16.3 °C 1.1 °F /  -17.2 °C 1008.4 in /  34144.4 hPa SW 3.2 mph /  5.1 km/h 3.2 mph /  5.1 km/h 89 % 0.0 in /  0 mm
17:05 2.6 °F /  -16.3 °C 1.0 °F /  -17.2 °C 1008.4 in /  34144.4 hPa SSW 3.2 mph /  5.1 km/h 3.2 mph /  5.1 km/h 89 % 0.0 in /  0 mm
17:11 2.4 °F /  -16.4 °C 0.8 °F /  -17.3 °C 1008.4 in /  34144.4 hPa SW 1.4 mph /  2.3 km/h 4.8 mph /  7.7 km/h 89 % 0.0 in /  0 mm
17:17 2.3 °F /  -16.5 °C 0.7 °F /  -17.4 °C 1008.4 in /  34144.4 hPa SW 3.2 mph /  5.1 km/h 6.4 mph /  10.3 km/h 89 % 0.0 in /  0 mm
17:23 2.3 °F /  -16.5 °C 0.8 °F /  -17.3 °C 1008.7 in /  34154.6 hPa WSW 3.2 mph /  5.1 km/h 4.8 mph /  7.7 km/h 90 % 0.0 in /  0 mm
17:25 2.2 °F /  -16.6 °C 0.7 °F /  -17.4 °C 1008.7 in /  34154.6 hPa WSW 1.4 mph /  2.3 km/h 3.2 mph /  5.1 km/h 90 % 0.0 in /  0 mm
17:31 2.2 °F /  -16.6 °C 0.7 °F /  -17.4 °C 1008.7 in /  34154.6 hPa WSW 1.4 mph /  2.3 km/h 6.4 mph /  10.3 km/h 90 % 0.0 in /  0 mm
17:37 2.1 °F /  -16.6 °C 0.6 °F /  -17.4 °C 1008.7 in /  34154.6 hPa WSW 3.2 mph /  5.1 km/h 3.2 mph /  5.1 km/h 90 % 0.0 in /  0 mm
17:43 2.0 °F /  -16.7 °C 0.7 °F /  -17.4 °C 1009.0 in /  34164.7 hPa SW 1.4 mph /  2.3 km/h 4.8 mph /  7.7 km/h 91 % 0.0 in /  0 mm
17:45 2.0 °F /  -16.7 °C 0.7 °F /  -17.4 °C 1009.0 in /  34164.7 hPa Calm   4.8 mph /  7.7 km/h 91 % 0.0 in /  0 mm
17:51 1.9 °F /  -16.7 °C 0.6 °F /  -17.4 °C 1009.0 in /  34164.7 hPa SW 1.4 mph /  2.3 km/h 3.2 mph /  5.1 km/h 91 % 0.0 in /  0 mm
17:57 1.9 °F /  -16.7 °C 0.6 °F /  -17.4 °C 1009.0 in /  34164.7 hPa WSW 3.2 mph /  5.1 km/h 4.8 mph /  7.7 km/h 91 % 0.0 in /  0 mm
18:01 1.9 °F /  -16.7 °C 0.6 °F /  -17.4 °C 1009.0 in /  34164.7 hPa WSW 1.4 mph /  2.3 km/h 3.2 mph /  5.1 km/h 91 % 0.0 in /  0 mm
18:07 1.8 °F /  -16.8 °C 0.5 °F /  -17.5 °C 1009.0 in /  34164.7 hPa WSW 1.4 mph /  2.3 km/h 6.4 mph /  10.3 km/h 91 % 0.0 in /  0 mm
18:13 1.7 °F /  -16.8 °C 0.4 °F /  -17.6 °C 1009.4 in /  34178.3 hPa WSW 1.4 mph /  2.3 km/h 3.2 mph /  5.1 km/h 91 % 0.0 in /  0 mm
18:19 1.6 °F /  -16.9 °C 0.4 °F /  -17.6 °C 1009.4 in /  34178.3 hPa West 3.2 mph /  5.1 km/h 3.2 mph /  5.1 km/h 92 % 0.0 in /  0 mm
18:25 1.6 °F /  -16.9 °C 0.4 °F /  -17.6 °C 1009.4 in /  34178.3 hPa West 1.4 mph /  2.3 km/h 4.8 mph /  7.7 km/h 92 % 0.0 in /  0 mm
18:31 1.6 °F /  -16.9 °C 0.4 °F /  -17.6 °C 1009.4 in /  34178.3 hPa West 1.4 mph /  2.3 km/h 4.8 mph /  7.7 km/h 92 % 0.0 in /  0 mm
18:35 1.5 °F /  -16.9 °C 0.3 °F /  -17.6 °C 1009.4 in /  34178.3 hPa West 3.2 mph /  5.1 km/h 3.2 mph /  5.1 km/h 92 % 0.0 in /  0 mm
18:37 1.5 °F /  -16.9 °C 0.3 °F /  -17.6 °C 1009.7 in /  34188.4 hPa WSW 3.2 mph /  5.1 km/h 6.4 mph /  10.3 km/h 92 % 0.0 in /  0 mm
18:43 1.6 °F /  -16.9 °C 0.6 °F /  -17.4 °C 1009.7 in /  34188.4 hPa WSW 1.4 mph /  2.3 km/h 4.8 mph /  7.7 km/h 93 % 0.0 in /  0 mm
18:49 1.6 °F /  -16.9 °C 0.4 °F /  -17.6 °C 1009.7 in /  34188.4 hPa West 3.2 mph /  5.1 km/h 4.8 mph /  7.7 km/h 92 % 0.0 in /  0 mm
18:55 1.5 °F /  -16.9 °C 0.3 °F /  -17.6 °C 1009.7 in /  34188.4 hPa West 3.2 mph /  5.1 km/h 4.8 mph /  7.7 km/h 92 % 0.0 in /  0 mm
19:01 1.5 °F /  -16.9 °C 0.3 °F /  -17.6 °C 1010.0 in /  34198.6 hPa WSW 3.2 mph /  5.1 km/h 6.4 mph /  10.3 km/h 92 % 0.0 in /  0 mm
19:07 1.5 °F /  -16.9 °C 0.5 °F /  -17.5 °C 1010.0 in /  34198.6 hPa WSW 1.4 mph /  2.3 km/h 4.8 mph /  7.7 km/h 93 % 0.0 in /  0 mm
19:13 1.5 °F /  -16.9 °C 0.3 °F /  -17.6 °C 1010.0 in /  34198.6 hPa West 1.4 mph /  2.3 km/h 3.2 mph /  5.1 km/h 92 % 0.0 in /  0 mm
19:19 1.5 °F /  -16.9 °C 0.5 °F /  -17.5 °C 1010.0 in /  34198.6 hPa West 3.2 mph /  5.1 km/h 8.0 mph /  12.9 km/h 93 % 0.0 in /  0 mm
19:25 1.5 °F /  -16.9 °C 0.5 °F /  -17.5 °C 1010.0 in /  34198.6 hPa West 3.2 mph /  5.1 km/h 8.0 mph /  12.9 km/h 93 % 0.0 in /  0 mm
19:31 1.4 °F /  -17 °C 0.4 °F /  -17.6 °C 1010.0 in /  34198.6 hPa Calm   3.2 mph /  5.1 km/h 93 % 0.0 in /  0 mm
19:39 1.4 °F /  -17 °C 0.4 °F /  -17.6 °C 1010.4 in /  34212.1 hPa Calm   3.2 mph /  5.1 km/h 93 % 0.0 in /  0 mm
19:45 1.2 °F /  -17.1 °C 0.0 °F /  -17.8 °C 1010.4 in /  34212.1 hPa Calm     92 % 0.0 in /  0 mm
19:51 0.8 °F /  -17.3 °C -0.4 °F /  -18 °C 1010.7 in /  34222.3 hPa Calm   1.6 mph /  2.6 km/h 92 % 0.0 in /  0 mm
19:57 0.6 °F /  -17.4 °C -0.4 °F /  -18 °C 1010.7 in /  34222.3 hPa SSW 1.4 mph /  2.3 km/h 3.2 mph /  5.1 km/h 93 % 0.0 in /  0 mm
20:03 0.4 °F /  -17.6 °C -0.6 °F /  -18.1 °C 1010.7 in /  34222.3 hPa SSE 1.4 mph /  2.3 km/h 3.2 mph /  5.1 km/h 93 % 0.0 in /  0 mm
20:09 0.3 °F /  -17.6 °C -0.6 °F /  -18.1 °C 1010.7 in /  34222.3 hPa Calm   1.6 mph /  2.6 km/h 94 % 0.0 in /  0 mm
20:17 0.2 °F /  -17.7 °C -0.7 °F /  -18.2 °C 1010.7 in /  34222.3 hPa Calm     94 % 0.0 in /  0 mm
20:23 0.1 °F /  -17.7 °C -0.8 °F /  -18.2 °C 1010.7 in /  34222.3 hPa Calm   3.2 mph /  5.1 km/h 94 % 0.0 in /  0 mm
20:28 0.0 °F /  -17.8 °C -0.8 °F /  -18.2 °C 1010.7 in /  34222.3 hPa SSW 1.4 mph /  2.3 km/h 3.2 mph /  5.1 km/h 94 % 0.0 in /  0 mm
20:33 0.2 °F /  -17.7 °C -0.5 °F /  -18.1 °C 1010.7 in /  34222.3 hPa Calm   1.6 mph /  2.6 km/h 95 % 0.0 in /  0 mm
20:39 0.2 °F /  -17.7 °C -0.5 °F /  -18.1 °C 1010.7 in /  34222.3 hPa Calm     95 % 0.0 in /  0 mm
20:42 0.1 °F /  -17.7 °C -0.6 °F /  -18.1 °C 1010.7 in /  34222.3 hPa Calm     95 % 0.0 in /  0 mm
20:48 0.0 °F /  -17.8 °C -0.7 °F /  -18.2 °C 1010.7 in /  34222.3 hPa Calm   1.6 mph /  2.6 km/h 95 % 0.0 in /  0 mm
20:56 0.2 °F /  -17.7 °C -0.5 °F /  -18.1 °C 1010.7 in /  34222.3 hPa Calm   1.6 mph /  2.6 km/h 95 % 0.0 in /  0 mm
20:58 0.2 °F /  -17.7 °C -0.5 °F /  -18.1 °C 1010.7 in /  34222.3 hPa Calm     95 % 0.0 in /  0 mm
21:04 0.1 °F /  -17.7 °C -0.6 °F /  -18.1 °C 1011.1 in /  34235.8 hPa Calm     95 % 0.0 in /  0 mm
21:10 -0.1 °F /  -17.8 °C -0.8 °F /  -18.2 °C 1011.1 in /  34235.8 hPa Calm     95 % 0.0 in /  0 mm
21:16 -0.2 °F /  -17.9 °C -0.9 °F /  -18.3 °C 1011.1 in /  34235.8 hPa Calm     95 % 0.0 in /  0 mm
21:22 -0.3 °F /  -17.9 °C -1.0 °F /  -18.3 °C 1011.1 in /  34235.8 hPa Calm   1.6 mph /  2.6 km/h 95 % 0.0 in /  0 mm
21:28 -0.3 °F /  -17.9 °C -1.0 °F /  -18.3 °C 1011.1 in /  34235.8 hPa Calm     95 % 0.0 in /  0 mm
21:32 -0.3 °F /  -17.9 °C -1.0 °F /  -18.3 °C 1011.1 in /  34235.8 hPa Calm     95 % 0.0 in /  0 mm
21:38 -0.4 °F /  -18 °C -1.1 °F /  -18.4 °C 1011.4 in /  34246 hPa Calm     95 % 0.0 in /  0 mm
21:44 -0.6 °F /  -18.1 °C -1.3 °F /  -18.5 °C 1011.4 in /  34246 hPa Calm     95 % 0.0 in /  0 mm
21:50 -0.7 °F /  -18.2 °C -1.4 °F /  -18.6 °C 1011.4 in /  34246 hPa Calm     95 % 0.0 in /  0 mm
21:56 -0.6 °F /  -18.1 °C -1.2 °F /  -18.4 °C 1011.4 in /  34246 hPa WSW 1.4 mph /  2.3 km/h 3.2 mph /  5.1 km/h 96 % 0.0 in /  0 mm
21:58 -0.5 °F /  -18.1 °C -1.1 °F /  -18.4 °C 1011.4 in /  34246 hPa Calm   1.6 mph /  2.6 km/h 96 % 0.0 in /  0 mm
22:04 -0.3 °F /  -17.9 °C -0.9 °F /  -18.3 °C 1011.4 in /  34246 hPa Calm   1.6 mph /  2.6 km/h 96 % 0.0 in /  0 mm
22:10 -0.2 °F /  -17.9 °C -0.8 °F /  -18.2 °C 1011.7 in /  34256.2 hPa SW 1.4 mph /  2.3 km/h 3.2 mph /  5.1 km/h 96 % 0.0 in /  0 mm
22:14 -0.2 °F /  -17.9 °C -0.8 °F /  -18.2 °C 1011.7 in /  34256.2 hPa Calm   3.2 mph /  5.1 km/h 96 % 0.0 in /  0 mm
22:16 -0.1 °F /  -17.8 °C -0.7 °F /  -18.2 °C 1011.7 in /  34256.2 hPa Calm   1.6 mph /  2.6 km/h 96 % 0.0 in /  0 mm
22:24 -0.2 °F /  -17.9 °C -0.8 °F /  -18.2 °C 1011.7 in /  34256.2 hPa Calm   1.6 mph /  2.6 km/h 96 % 0.0 in /  0 mm
22:30 -0.3 °F /  -17.9 °C -0.9 °F /  -18.3 °C 1011.7 in /  34256.2 hPa Calm   1.6 mph /  2.6 km/h 96 % 0.0 in /  0 mm
22:36 -0.4 °F /  -18 °C -1.0 °F /  -18.3 °C 1011.7 in /  34256.2 hPa Calm   1.6 mph /  2.6 km/h 96 % 0.0 in /  0 mm
22:42 -0.4 °F /  -18 °C -1.0 °F /  -18.3 °C 1011.7 in /  34256.2 hPa Calm     96 % 0.0 in /  0 mm
22:50 -0.4 °F /  -18 °C -1.0 °F /  -18.3 °C 1011.7 in /  34256.2 hPa Calm   1.6 mph /  2.6 km/h 96 % 0.0 in /  0 mm
22:56 -0.6 °F /  -18.1 °C -1.2 °F /  -18.4 °C 1011.7 in /  34256.2 hPa Calm   1.6 mph /  2.6 km/h 96 % 0.0 in /  0 mm
23:02 -0.7 °F /  -18.2 °C -1.3 °F /  -18.5 °C 1011.7 in /  34256.2 hPa Calm   1.6 mph /  2.6 km/h 96 % 0.0 in /  0 mm
23:08 -0.8 °F /  -18.2 °C -1.4 °F /  -18.6 °C 1011.7 in /  34256.2 hPa Calm     96 % 0.0 in /  0 mm
23:14 -0.9 °F /  -18.3 °C -1.5 °F /  -18.6 °C 1012.1 in /  34269.7 hPa Calm   1.6 mph /  2.6 km/h 96 % 0.0 in /  0 mm
23:20 -0.9 °F /  -18.3 °C -1.5 °F /  -18.6 °C 1012.1 in /  34269.7 hPa Calm   1.6 mph /  2.6 km/h 96 % 0.0 in /  0 mm
23:26 -0.7 °F /  -18.2 °C -1.1 °F /  -18.4 °C 1012.1 in /  34269.7 hPa Calm   1.6 mph /  2.6 km/h 97 % 0.0 in /  0 mm
23:32 -0.6 °F /  -18.1 °C -1.0 °F /  -18.3 °C 1012.4 in /  34279.9 hPa Calm   1.6 mph /  2.6 km/h 97 % 0.0 in /  0 mm
23:38 -0.7 °F /  -18.2 °C -1.3 °F /  -18.5 °C 1012.4 in /  34279.9 hPa Calm     96 % 0.0 in /  0 mm
23:44 -0.7 °F /  -18.2 °C -1.3 °F /  -18.5 °C 1012.8 in /  34293.4 hPa Calm   1.6 mph /  2.6 km/h 96 % 0.0 in /  0 mm
23:50 -0.8 °F /  -18.2 °C -1.4 °F /  -18.6 °C 1012.8 in /  34293.4 hPa Calm     96 % 0.0 in /  0 mm
23:54 -0.9 °F /  -18.3 °C -1.5 °F /  -18.6 °C 1012.8 in /  34293.4 hPa Calm     96 % 0.0 in /  0 mm
Meteo18
Compliments of Weather Underground - 4 mb

Script developed by  Jim McMurry - jmcmurry@mwt.net Adapted for the template by  Wim van der Kuil - Leuven-Template.eu

You find our weather info also at:

European Weather Network

Weather Underground

Equipment we use:

Weather-station
Davis Vue

Weather-program
Meteobridge

Weather-server
Raspberry PI 2 B+

Provider
1 and 1

Davis Vue

Meteobridge

Raspberry PI 2 B+

1 and 1